sensor_id;sensor_type;location;lat;lon;timestamp;pressure;altitude;pressure_sealevel;temperature;humidity
60437;BME280;46289;51.992;4.498;2023-04-19T00:01:20;102986.28;;;7.54;78.35
60437;BME280;46289;51.992;4.498;2023-04-19T00:03:25;102979.31;;;7.55;78.64
60437;BME280;46289;51.992;4.498;2023-04-19T00:05:31;102979.34;;;7.56;78.52
60437;BME280;46289;51.992;4.498;2023-04-19T00:07:37;102977.56;;;7.54;78.28
60437;BME280;46289;51.992;4.498;2023-04-19T00:09:43;102979.31;;;7.52;78.60
60437;BME280;46289;51.992;4.498;2023-04-19T00:11:49;102980.19;;;7.51;78.66
60437;BME280;46289;51.992;4.498;2023-04-19T00:13:54;102978.47;;;7.56;78.32
60437;BME280;46289;51.992;4.498;2023-04-19T00:16:02;102976.78;;;7.64;78.45
60437;BME280;46289;51.992;4.498;2023-04-19T00:18:08;102968.94;;;7.70;78.17
60437;BME280;46289;51.992;4.498;2023-04-19T00:20:13;102974.22;;;7.75;78.03
60437;BME280;46289;51.992;4.498;2023-04-19T00:22:19;102975.09;;;7.78;77.71
60437;BME280;46289;51.992;4.498;2023-04-19T00:24:27;102979.44;;;7.75;77.78
60437;BME280;46289;51.992;4.498;2023-04-19T00:26:32;102982.97;;;7.77;77.89
60437;BME280;46289;51.992;4.498;2023-04-19T00:28:40;102973.34;;;7.74;78.25
60437;BME280;46289;51.992;4.498;2023-04-19T00:30:44;102975.13;;;7.80;77.88
60437;BME280;46289;51.992;4.498;2023-04-19T00:32:52;102960.25;;;7.79;77.93
60437;BME280;46289;51.992;4.498;2023-04-19T00:34:57;102964.63;;;7.77;78.36
60437;BME280;46289;51.992;4.498;2023-04-19T00:37:02;102958.53;;;7.84;77.95
60437;BME280;46289;51.992;4.498;2023-04-19T00:39:09;102968.13;;;7.82;78.13
60437;BME280;46289;51.992;4.498;2023-04-19T00:41:14;102975.09;;;7.81;78.43
60437;BME280;46289;51.992;4.498;2023-04-19T00:43:20;102960.28;;;7.77;78.20
60437;BME280;46289;51.992;4.498;2023-04-19T00:45:25;102962.03;;;7.77;78.35
60437;BME280;46289;51.992;4.498;2023-04-19T00:47:30;102957.72;;;7.88;78.17
60437;BME280;46289;51.992;4.498;2023-04-19T00:49:38;102962.91;;;7.83;78.23
60437;BME280;46289;51.992;4.498;2023-04-19T00:51:44;102955.06;;;7.85;78.30
60437;BME280;46289;51.992;4.498;2023-04-19T00:53:50;102962.91;;;7.86;78.54
60437;BME280;46289;51.992;4.498;2023-04-19T00:55:58;102961.19;;;7.85;78.38
60437;BME280;46289;51.992;4.498;2023-04-19T00:58:07;102962.06;;;7.89;78.54
60437;BME280;46289;51.992;4.498;2023-04-19T01:00:13;102960.31;;;7.88;78.77
60437;BME280;46289;51.992;4.498;2023-04-19T01:02:21;102954.25;;;7.94;78.83
60437;BME280;46289;51.992;4.498;2023-04-19T01:04:26;102955.97;;;7.95;78.62
60437;BME280;46289;51.992;4.498;2023-04-19T01:06:35;102957.75;;;8.00;78.64
60437;BME280;46289;51.992;4.498;2023-04-19T01:08:43;102955.16;;;8.05;78.94
60437;BME280;46289;51.992;4.498;2023-04-19T01:10:50;102952.56;;;8.06;78.75
60437;BME280;46289;51.992;4.498;2023-04-19T01:12:55;102956.97;;;8.17;78.85
60437;BME280;46289;51.992;4.498;2023-04-19T01:15:00;102946.47;;;8.18;78.84
60437;BME280;46289;51.992;4.498;2023-04-19T01:17:06;102949.13;;;8.36;78.80
60437;BME280;46289;51.992;4.498;2023-04-19T01:19:12;102942.22;;;8.46;78.47
60437;BME280;46289;51.992;4.498;2023-04-19T01:21:22;102947.47;;;8.48;78.21
60437;BME280;46289;51.992;4.498;2023-04-19T01:23:33;102944.84;;;8.49;78.26
60437;BME280;46289;51.992;4.498;2023-04-19T01:25:40;102938.72;;;8.55;78.57
60437;BME280;46289;51.992;4.498;2023-04-19T01:27:45;102939.63;;;8.59;78.24
60437;BME280;46289;51.992;4.498;2023-04-19T01:29:50;102939.63;;;8.68;78.28
60437;BME280;46289;51.992;4.498;2023-04-19T01:31:55;102937.03;;;8.66;78.16
60437;BME280;46289;51.992;4.498;2023-04-19T01:34:01;102934.38;;;8.71;78.26
60437;BME280;46289;51.992;4.498;2023-04-19T01:36:08;102935.28;;;8.77;77.85
60437;BME280;46289;51.992;4.498;2023-04-19T01:38:14;102938.78;;;8.86;77.53
60437;BME280;46289;51.992;4.498;2023-04-19T01:40:24;102935.25;;;8.87;77.72
60437;BME280;46289;51.992;4.498;2023-04-19T01:42:29;102932.66;;;8.93;77.57
60437;BME280;46289;51.992;4.498;2023-04-19T01:44:34;102944.91;;;8.91;77.68
60437;BME280;46289;51.992;4.498;2023-04-19T01:46:39;102939.66;;;8.83;77.94
60437;BME280;46289;51.992;4.498;2023-04-19T01:48:45;102941.38;;;8.70;78.00
60437;BME280;46289;51.992;4.498;2023-04-19T01:50:50;102936.09;;;8.55;78.24
60437;BME280;46289;51.992;4.498;2023-04-19T01:52:55;102937.84;;;8.41;78.47
60437;BME280;46289;51.992;4.498;2023-04-19T01:55:00;102937.75;;;8.22;78.96
60437;BME280;46289;51.992;4.498;2023-04-19T01:57:08;102940.34;;;8.16;79.15
60437;BME280;46289;51.992;4.498;2023-04-19T01:59:13;102941.19;;;8.04;79.53
60437;BME280;46289;51.992;4.498;2023-04-19T02:01:20;102939.41;;;7.99;79.62
60437;BME280;46289;51.992;4.498;2023-04-19T02:03:26;102940.25;;;7.88;80.18
60437;BME280;46289;51.992;4.498;2023-04-19T02:05:31;102941.06;;;7.81;80.32
60437;BME280;46289;51.992;4.498;2023-04-19T02:07:37;102937.56;;;7.76;80.57
60437;BME280;46289;51.992;4.498;2023-04-19T02:09:42;102941.94;;;7.74;80.54
60437;BME280;46289;51.992;4.498;2023-04-19T02:11:49;102928.81;;;7.69;80.61
60437;BME280;46289;51.992;4.498;2023-04-19T02:13:57;102933.16;;;7.66;80.68
60437;BME280;46289;51.992;4.498;2023-04-19T02:16:02;102932.28;;;7.68;81.05
60437;BME280;46289;51.992;4.498;2023-04-19T02:18:09;102926.19;;;7.65;80.86
60437;BME280;46289;51.992;4.498;2023-04-19T02:20:14;102926.19;;;7.65;80.90
60437;BME280;46289;51.992;4.498;2023-04-19T02:22:23;102929.69;;;7.64;81.03
60437;BME280;46289;51.992;4.498;2023-04-19T02:24:28;102927.94;;;7.64;81.21
60437;BME280;46289;51.992;4.498;2023-04-19T02:26:33;102934.00;;;7.59;81.50
60437;BME280;46289;51.992;4.498;2023-04-19T02:28:42;102930.53;;;7.58;81.41
60437;BME280;46289;51.992;4.498;2023-04-19T02:30:52;102937.47;;;7.56;81.78
60437;BME280;46289;51.992;4.498;2023-04-19T02:32:57;102938.31;;;7.55;81.75
60437;BME280;46289;51.992;4.498;2023-04-19T02:35:03;102938.34;;;7.57;81.80
60437;BME280;46289;51.992;4.498;2023-04-19T02:37:09;102936.59;;;7.56;82.23
60437;BME280;46289;51.992;4.498;2023-04-19T02:39:14;102938.34;;;7.60;82.02
60437;BME280;46289;51.992;4.498;2023-04-19T02:41:22;102935.78;;;7.64;82.11
60437;BME280;46289;51.992;4.498;2023-04-19T02:43:27;102930.56;;;7.67;81.94
60437;BME280;46289;51.992;4.498;2023-04-19T02:45:32;102937.56;;;7.75;81.55
60437;BME280;46289;51.992;4.498;2023-04-19T02:47:43;102933.22;;;7.75;81.75
60437;BME280;46289;51.992;4.498;2023-04-19T02:49:51;102936.72;;;7.80;81.54
60437;BME280;46289;51.992;4.498;2023-04-19T02:51:56;102935.84;;;7.84;81.59
60437;BME280;46289;51.992;4.498;2023-04-19T02:54:01;102936.72;;;7.83;81.81
60437;BME280;46289;51.992;4.498;2023-04-19T02:56:08;102933.28;;;7.87;81.64
60437;BME280;46289;51.992;4.498;2023-04-19T02:58:13;102928.06;;;7.90;81.51
60437;BME280;46289;51.992;4.498;2023-04-19T03:00:20;102938.53;;;7.94;81.61
60437;BME280;46289;51.992;4.498;2023-04-19T03:02:26;102935.94;;;7.98;81.25
60437;BME280;46289;51.992;4.498;2023-04-19T03:04:33;102934.19;;;8.00;81.49
60437;BME280;46289;51.992;4.498;2023-04-19T03:06:40;102934.22;;;8.03;81.43
60437;BME280;46289;51.992;4.498;2023-04-19T03:08:45;102941.22;;;8.06;81.30
60437;BME280;46289;51.992;4.498;2023-04-19T03:10:51;102935.09;;;8.07;81.29
60437;BME280;46289;51.992;4.498;2023-04-19T03:12:56;102939.44;;;8.03;81.31
60437;BME280;46289;51.992;4.498;2023-04-19T03:15:01;102940.31;;;8.07;81.29
60437;BME280;46289;51.992;4.498;2023-04-19T03:17:06;102936.81;;;8.02;81.69
60437;BME280;46289;51.992;4.498;2023-04-19T03:19:11;102937.72;;;8.08;81.30
60437;BME280;46289;51.992;4.498;2023-04-19T03:21:19;102929.84;;;8.10;81.28
60437;BME280;46289;51.992;4.498;2023-04-19T03:23:28;102928.97;;;8.08;81.33
60437;BME280;46289;51.992;4.498;2023-04-19T03:25:33;102930.72;;;8.06;81.59
60437;BME280;46289;51.992;4.498;2023-04-19T03:27:39;102931.59;;;8.06;81.63
60437;BME280;46289;51.992;4.498;2023-04-19T03:29:46;102928.97;;;8.06;81.65
60437;BME280;46289;51.992;4.498;2023-04-19T03:31:51;102927.25;;;8.14;81.14
60437;BME280;46289;51.992;4.498;2023-04-19T03:33:56;102928.97;;;8.08;81.34
60437;BME280;46289;51.992;4.498;2023-04-19T03:36:01;102926.38;;;8.09;81.57
60437;BME280;46289;51.992;4.498;2023-04-19T03:38:09;102929.00;;;8.12;81.45
60437;BME280;46289;51.992;4.498;2023-04-19T03:40:14;102920.28;;;8.12;81.20
60437;BME280;46289;51.992;4.498;2023-04-19T03:42:20;102924.63;;;8.13;81.59
60437;BME280;46289;51.992;4.498;2023-04-19T03:44:30;102925.53;;;8.17;81.78
60437;BME280;46289;51.992;4.498;2023-04-19T03:46:35;102928.13;;;8.18;81.41
60437;BME280;46289;51.992;4.498;2023-04-19T03:48:41;102925.53;;;8.20;81.46
60437;BME280;46289;51.992;4.498;2023-04-19T03:50:46;102923.78;;;8.22;81.61
60437;BME280;46289;51.992;4.498;2023-04-19T03:52:51;102918.56;;;8.22;81.40
60437;BME280;46289;51.992;4.498;2023-04-19T03:54:59;102924.66;;;8.25;81.48
60437;BME280;46289;51.992;4.498;2023-04-19T03:57:04;102919.44;;;8.31;81.07
60437;BME280;46289;51.992;4.498;2023-04-19T03:59:11;102917.69;;;8.30;80.98
60437;BME280;46289;51.992;4.498;2023-04-19T04:01:17;102921.19;;;8.35;80.85
60437;BME280;46289;51.992;4.498;2023-04-19T04:03:22;102922.09;;;8.38;80.74
60437;BME280;46289;51.992;4.498;2023-04-19T04:05:28;102922.97;;;8.38;80.87
60437;BME280;46289;51.992;4.498;2023-04-19T04:07:33;102923.84;;;8.42;80.57
60437;BME280;46289;51.992;4.498;2023-04-19T04:09:39;102921.25;;;8.45;80.81
60437;BME280;46289;51.992;4.498;2023-04-19T04:11:50;102917.78;;;8.49;80.59
60437;BME280;46289;51.992;4.498;2023-04-19T04:13:55;102915.13;;;8.47;80.70
60437;BME280;46289;51.992;4.498;2023-04-19T04:16:01;102919.50;;;8.50;80.58
60437;BME280;46289;51.992;4.498;2023-04-19T04:18:06;102925.59;;;8.50;80.43
60437;BME280;46289;51.992;4.498;2023-04-19T04:20:11;102923.00;;;8.49;80.53
60437;BME280;46289;51.992;4.498;2023-04-19T04:22:19;102921.28;;;8.54;80.23
60437;BME280;46289;51.992;4.498;2023-04-19T04:24:25;102923.00;;;8.55;80.33
60437;BME280;46289;51.992;4.498;2023-04-19T04:26:31;102937.00;;;8.57;79.99
60437;BME280;46289;51.992;4.498;2023-04-19T04:28:39;102928.25;;;8.58;80.25
60437;BME280;46289;51.992;4.498;2023-04-19T04:30:44;102932.63;;;8.56;79.98
60437;BME280;46289;51.992;4.498;2023-04-19T04:32:49;102934.38;;;8.60;79.96
60437;BME280;46289;51.992;4.498;2023-04-19T04:34:54;102941.38;;;8.60;80.10
60437;BME280;46289;51.992;4.498;2023-04-19T04:36:59;102937.00;;;8.63;80.18
60437;BME280;46289;51.992;4.498;2023-04-19T04:39:04;102939.63;;;8.71;79.38
60437;BME280;46289;51.992;4.498;2023-04-19T04:41:11;102933.50;;;8.64;79.57
60437;BME280;46289;51.992;4.498;2023-04-19T04:43:22;102936.13;;;8.66;79.58
60437;BME280;46289;51.992;4.498;2023-04-19T04:45:32;102935.25;;;8.68;79.38
60437;BME280;46289;51.992;4.498;2023-04-19T04:47:39;102935.25;;;8.65;79.59
60437;BME280;46289;51.992;4.498;2023-04-19T04:49:44;102933.53;;;8.61;79.65
60437;BME280;46289;51.992;4.498;2023-04-19T04:51:50;102942.25;;;8.66;79.86
60437;BME280;46289;51.992;4.498;2023-04-19T04:53:55;102941.38;;;8.73;79.61
60437;BME280;46289;51.992;4.498;2023-04-19T04:56:00;102952.75;;;8.75;79.50
60437;BME280;46289;51.992;4.498;2023-04-19T04:58:06;102954.47;;;8.70;79.58
60437;BME280;46289;51.992;4.498;2023-04-19T05:00:12;102945.75;;;8.79;79.37
60437;BME280;46289;51.992;4.498;2023-04-19T05:02:21;102951.00;;;8.77;79.35
60437;BME280;46289;51.992;4.498;2023-04-19T05:04:27;102946.66;;;8.79;78.99
60437;BME280;46289;51.992;4.498;2023-04-19T05:06:32;102952.75;;;8.85;78.99
60437;BME280;46289;51.992;4.498;2023-04-19T05:08:38;102944.00;;;8.86;78.88
60437;BME280;46289;51.992;4.498;2023-04-19T05:10:43;102944.88;;;8.89;78.80
60437;BME280;46289;51.992;4.498;2023-04-19T05:12:48;102944.88;;;8.94;78.48
60437;BME280;46289;51.992;4.498;2023-04-19T05:14:56;102945.75;;;8.94;78.43
60437;BME280;46289;51.992;4.498;2023-04-19T05:17:01;102953.63;;;8.96;78.53
60437;BME280;46289;51.992;4.498;2023-04-19T05:19:11;102941.41;;;8.98;78.41
60437;BME280;46289;51.992;4.498;2023-04-19T05:21:16;102935.28;;;9.00;77.96
60437;BME280;46289;51.992;4.498;2023-04-19T05:23:21;102938.78;;;9.04;77.94
60437;BME280;46289;51.992;4.498;2023-04-19T05:25:26;102947.53;;;9.06;77.75
60437;BME280;46289;51.992;4.498;2023-04-19T05:27:31;102948.38;;;9.02;77.55
60437;BME280;46289;51.992;4.498;2023-04-19T05:29:42;102937.91;;;9.04;77.58
60437;BME280;46289;51.992;4.498;2023-04-19T05:31:48;102939.63;;;9.11;77.05
60437;BME280;46289;51.992;4.498;2023-04-19T05:33:54;102951.00;;;9.11;77.04
60437;BME280;46289;51.992;4.498;2023-04-19T05:36:01;102949.28;;;9.16;76.58
60437;BME280;46289;51.992;4.498;2023-04-19T05:38:06;102945.75;;;9.23;76.20
60437;BME280;46289;51.992;4.498;2023-04-19T05:40:11;102954.50;;;9.27;75.73
60437;BME280;46289;51.992;4.498;2023-04-19T05:42:20;102959.75;;;9.35;75.27
60437;BME280;46289;51.992;4.498;2023-04-19T05:44:25;102959.72;;;9.38;74.85
60437;BME280;46289;51.992;4.498;2023-04-19T05:46:30;102950.97;;;9.51;74.17
60437;BME280;46289;51.992;4.498;2023-04-19T05:48:35;102958.81;;;9.62;74.03
60437;BME280;46289;51.992;4.498;2023-04-19T05:50:40;102957.03;;;9.72;73.51
60437;BME280;46289;51.992;4.498;2023-04-19T05:52:48;102955.28;;;9.67;72.53
60437;BME280;46289;51.992;4.498;2023-04-19T05:54:53;102956.13;;;9.80;72.41
60437;BME280;46289;51.992;4.498;2023-04-19T05:56:58;102960.50;;;9.83;71.74
60437;BME280;46289;51.992;4.498;2023-04-19T05:59:03;102963.06;;;10.01;71.71
60437;BME280;46289;51.992;4.498;2023-04-19T06:01:09;102968.28;;;10.09;70.81
60437;BME280;46289;51.992;4.498;2023-04-19T06:03:14;102968.28;;;10.07;70.39
60437;BME280;46289;51.992;4.498;2023-04-19T06:05:22;102971.78;;;10.06;70.45
60437;BME280;46289;51.992;4.498;2023-04-19T06:07:27;102965.66;;;10.06;70.43
60437;BME280;46289;51.992;4.498;2023-04-19T06:09:42;102964.69;;;10.33;69.73
60437;BME280;46289;51.992;4.498;2023-04-19T06:11:50;102963.75;;;10.43;69.82
60437;BME280;46289;51.992;4.498;2023-04-19T06:13:55;102965.44;;;10.57;69.26
60437;BME280;46289;51.992;4.498;2023-04-19T06:16:01;102965.41;;;10.58;69.71
60437;BME280;46289;51.992;4.498;2023-04-19T06:18:06;102963.72;;;10.51;69.72
60437;BME280;46289;51.992;4.498;2023-04-19T06:20:20;102965.34;;;10.66;69.66
60437;BME280;46289;51.992;4.498;2023-04-19T06:22:25;102965.50;;;10.44;70.11
60437;BME280;46289;51.992;4.498;2023-04-19T06:24:30;102971.47;;;10.66;69.71
60437;BME280;46289;51.992;4.498;2023-04-19T06:26:38;102970.59;;;10.67;68.64
60437;BME280;46289;51.992;4.498;2023-04-19T06:28:44;102966.97;;;10.85;68.57
60437;BME280;46289;51.992;4.498;2023-04-19T06:30:50;102974.00;;;10.82;68.64
60437;BME280;46289;51.992;4.498;2023-04-19T06:32:55;102974.84;;;10.88;68.12
60437;BME280;46289;51.992;4.498;2023-04-19T06:35:00;102974.91;;;10.82;67.94
60437;BME280;46289;51.992;4.498;2023-04-19T06:37:05;102973.22;;;10.66;67.99
60437;BME280;46289;51.992;4.498;2023-04-19T06:39:10;102975.84;;;10.72;67.89
60437;BME280;46289;51.992;4.498;2023-04-19T06:41:15;102980.16;;;10.81;66.94
60437;BME280;46289;51.992;4.498;2023-04-19T06:43:23;102969.50;;;10.99;66.66
60437;BME280;46289;51.992;4.498;2023-04-19T06:45:28;102965.13;;;10.96;66.13
60437;BME280;46289;51.992;4.498;2023-04-19T06:47:33;102972.13;;;10.97;65.83
60437;BME280;46289;51.992;4.498;2023-04-19T06:49:39;102967.50;;;11.24;64.75
60437;BME280;46289;51.992;4.498;2023-04-19T06:51:44;102965.72;;;11.31;63.75
60437;BME280;46289;51.992;4.498;2023-04-19T06:53:50;102967.47;;;11.30;63.39
60437;BME280;46289;51.992;4.498;2023-04-19T06:55:57;102965.72;;;11.32;62.51
60437;BME280;46289;51.992;4.498;2023-04-19T06:58:03;102966.47;;;11.43;61.93
60437;BME280;46289;51.992;4.498;2023-04-19T07:00:15;102966.38;;;11.51;61.22
60437;BME280;46289;51.992;4.498;2023-04-19T07:02:20;102961.19;;;11.42;60.84
60437;BME280;46289;51.992;4.498;2023-04-19T07:04:25;102972.28;;;11.73;60.86
60437;BME280;46289;51.992;4.498;2023-04-19T07:06:30;102966.88;;;11.85;60.06
60437;BME280;46289;51.992;4.498;2023-04-19T07:08:35;102974.09;;;11.68;59.78
60437;BME280;46289;51.992;4.498;2023-04-19T07:10:50;102963.38;;;11.86;59.04
60437;BME280;46289;51.992;4.498;2023-04-19T07:12:57;102964.31;;;11.81;58.28
60437;BME280;46289;51.992;4.498;2023-04-19T07:15:03;102972.09;;;11.92;58.15
60437;BME280;46289;51.992;4.498;2023-04-19T07:17:11;102963.03;;;12.16;57.42
60437;BME280;46289;51.992;4.498;2023-04-19T07:19:19;102963.63;;;12.38;57.42
60437;BME280;46289;51.992;4.498;2023-04-19T07:21:24;102961.16;;;12.25;55.71
60437;BME280;46289;51.992;4.498;2023-04-19T07:23:33;102963.88;;;12.19;56.03
60437;BME280;46289;51.992;4.498;2023-04-19T07:25:39;102955.72;;;12.36;55.73
60437;BME280;46289;51.992;4.498;2023-04-19T07:27:44;102965.44;;;12.31;54.89
60437;BME280;46289;51.992;4.498;2023-04-19T07:29:49;102963.16;;;12.05;54.75
60437;BME280;46289;51.992;4.498;2023-04-19T07:31:54;102973.47;;;12.23;54.81
60437;BME280;46289;51.992;4.498;2023-04-19T07:34:03;102969.09;;;12.22;54.40
60437;BME280;46289;51.992;4.498;2023-04-19T07:36:09;102974.13;;;12.39;53.60
60437;BME280;46289;51.992;4.498;2023-04-19T07:38:14;102969.69;;;12.43;52.87
60437;BME280;46289;51.992;4.498;2023-04-19T07:40:21;102969.69;;;12.43;53.16
60437;BME280;46289;51.992;4.498;2023-04-19T07:42:28;102953.72;;;12.54;53.42
60437;BME280;46289;51.992;4.498;2023-04-19T07:44:33;102959.75;;;12.62;53.31
60437;BME280;46289;51.992;4.498;2023-04-19T07:46:42;102959.47;;;12.80;52.29
60437;BME280;46289;51.992;4.498;2023-04-19T07:48:48;102953.28;;;12.81;51.80
60437;BME280;46289;51.992;4.498;2023-04-19T07:50:56;102952.19;;;12.94;51.60
60437;BME280;46289;51.992;4.498;2023-04-19T07:53:01;102950.22;;;13.06;51.93
60437;BME280;46289;51.992;4.498;2023-04-19T07:55:08;102949.84;;;13.30;51.23
60437;BME280;46289;51.992;4.498;2023-04-19T07:57:16;102958.16;;;13.55;50.58
60437;BME280;46289;51.992;4.498;2023-04-19T07:59:24;102958.50;;;13.38;50.71
60437;BME280;46289;51.992;4.498;2023-04-19T08:01:29;102953.81;;;13.53;50.98
60437;BME280;46289;51.992;4.498;2023-04-19T08:03:34;102953.28;;;13.34;49.84
60437;BME280;46289;51.992;4.498;2023-04-19T08:05:40;102946.03;;;13.45;50.74
60437;BME280;46289;51.992;4.498;2023-04-19T08:07:50;102945.66;;;13.65;50.45
60437;BME280;46289;51.992;4.498;2023-04-19T08:09:55;102947.25;;;13.74;49.98
60437;BME280;46289;51.992;4.498;2023-04-19T08:12:00;102956.44;;;13.98;49.16
60437;BME280;46289;51.992;4.498;2023-04-19T08:14:06;102948.28;;;13.67;49.21
60437;BME280;46289;51.992;4.498;2023-04-19T08:16:22;102947.19;;;14.19;47.98
60437;BME280;46289;51.992;4.498;2023-04-19T08:18:48;102944.06;;;14.00;47.81
60437;BME280;46289;51.992;4.498;2023-04-19T08:20:54;102944.38;;;13.86;49.27
60437;BME280;46289;51.992;4.498;2023-04-19T08:23:02;102943.09;;;14.44;49.27
60437;BME280;46289;51.992;4.498;2023-04-19T08:25:23;102936.03;;;14.04;47.97
60437;BME280;46289;51.992;4.498;2023-04-19T08:27:29;102939.47;;;14.08;47.69
60437;BME280;46289;51.992;4.498;2023-04-19T08:29:34;102936.34;;;14.30;46.97
60437;BME280;46289;51.992;4.498;2023-04-19T08:31:42;102940.72;;;14.32;47.39
60437;BME280;46289;51.992;4.498;2023-04-19T08:33:48;102944.78;;;14.48;46.77
60437;BME280;46289;51.992;4.498;2023-04-19T08:35:53;102946.91;;;14.31;46.36
60437;BME280;46289;51.992;4.498;2023-04-19T08:37:58;102934.81;;;14.21;46.49
60437;BME280;46289;51.992;4.498;2023-04-19T08:40:09;102941.19;;;14.11;46.34
60437;BME280;46289;51.992;4.498;2023-04-19T08:42:15;102932.81;;;14.31;46.47
60437;BME280;46289;51.992;4.498;2023-04-19T08:44:38;102936.94;;;14.42;47.25
60437;BME280;46289;51.992;4.498;2023-04-19T08:47:04;102939.59;;;14.42;46.66
60437;BME280;46289;51.992;4.498;2023-04-19T08:49:14;102932.06;;;14.24;46.53
60437;BME280;46289;51.992;4.498;2023-04-19T08:51:21;102944.38;;;14.26;46.13
60437;BME280;46289;51.992;4.498;2023-04-19T08:53:27;102938.38;;;14.59;45.30
60437;BME280;46289;51.992;4.498;2023-04-19T08:55:35;102931.81;;;14.36;43.74
60437;BME280;46289;51.992;4.498;2023-04-19T08:57:55;102943.09;;;14.44;43.09
60437;BME280;46289;51.992;4.498;2023-04-19T09:00:02;102934.38;;;14.39;43.17
60437;BME280;46289;51.992;4.498;2023-04-19T09:02:09;102926.44;;;14.78;42.56
60437;BME280;46289;51.992;4.498;2023-04-19T09:04:14;102936.34;;;14.30;42.30
60437;BME280;46289;51.992;4.498;2023-04-19T09:06:38;102929.38;;;14.66;41.76
60437;BME280;46289;51.992;4.498;2023-04-19T09:08:45;102930.69;;;14.46;41.55
60437;BME280;46289;51.992;4.498;2023-04-19T09:10:57;102932.97;;;14.63;42.24
60437;BME280;46289;51.992;4.498;2023-04-19T09:13:04;102923.00;;;14.36;41.57
60437;BME280;46289;51.992;4.498;2023-04-19T09:15:10;102928.13;;;14.81;41.65
60437;BME280;46289;51.992;4.498;2023-04-19T09:17:15;102923.31;;;14.61;41.23
60437;BME280;46289;51.992;4.498;2023-04-19T09:19:20;102928.59;;;14.62;41.12
60437;BME280;46289;51.992;4.498;2023-04-19T09:21:26;102915.59;;;14.87;40.97
60437;BME280;46289;51.992;4.498;2023-04-19T09:23:32;102925.13;;;14.95;40.66
60437;BME280;46289;51.992;4.498;2023-04-19T09:25:38;102918.78;;;15.02;39.89
60437;BME280;46289;51.992;4.498;2023-04-19T09:28:13;102911.97;;;15.26;39.13
60437;BME280;46289;51.992;4.498;2023-04-19T09:30:20;102914.81;;;15.18;39.36
60437;BME280;46289;51.992;4.498;2023-04-19T09:32:45;102912.81;;;15.28;39.33
60437;BME280;46289;51.992;4.498;2023-04-19T09:34:52;102904.13;;;15.21;38.76
60437;BME280;46289;51.992;4.498;2023-04-19T09:37:04;102915.94;;;15.42;38.91
60437;BME280;46289;51.992;4.498;2023-04-19T09:39:33;102904.75;;;15.31;36.77
60437;BME280;46289;51.992;4.498;2023-04-19T09:41:50;102913.72;;;15.58;36.63
60437;BME280;46289;51.992;4.498;2023-04-19T09:44:08;102907.72;;;15.20;36.34
60437;BME280;46289;51.992;4.498;2023-04-19T09:46:34;102905.44;;;15.37;34.78
60437;BME280;46289;51.992;4.498;2023-04-19T09:48:41;102899.06;;;15.45;33.34
60437;BME280;46289;51.992;4.498;2023-04-19T09:50:54;102897.59;;;15.66;33.92
60437;BME280;46289;51.992;4.498;2023-04-19T09:53:05;102903.03;;;15.92;34.39
60437;BME280;46289;51.992;4.498;2023-04-19T09:55:11;102895.91;;;15.94;34.70
60437;BME280;46289;51.992;4.498;2023-04-19T09:57:29;102900.00;;;16.05;33.68
60437;BME280;46289;51.992;4.498;2023-04-19T09:59:36;102897.66;;;15.64;33.09
60437;BME280;46289;51.992;4.498;2023-04-19T10:01:43;102898.00;;;15.83;33.52
60437;BME280;46289;51.992;4.498;2023-04-19T10:03:49;102893.03;;;15.72;32.95
60437;BME280;46289;51.992;4.498;2023-04-19T10:05:56;102897.31;;;15.76;33.41
60437;BME280;46289;51.992;4.498;2023-04-19T10:08:16;102899.97;;;15.76;32.46
60437;BME280;46289;51.992;4.498;2023-04-19T10:10:24;102900.25;;;15.97;30.68
60437;BME280;46289;51.992;4.498;2023-04-19T10:12:34;102898.91;;;15.82;33.23
60437;BME280;46289;51.992;4.498;2023-04-19T10:15:03;102888.53;;;15.74;33.97
60437;BME280;46289;51.992;4.498;2023-04-19T10:17:10;102895.03;;;15.63;34.81
60437;BME280;46289;51.992;4.498;2023-04-19T10:19:20;102887.72;;;16.02;33.88
60437;BME280;46289;51.992;4.498;2023-04-19T10:21:27;102885.59;;;16.13;32.63
60437;BME280;46289;51.992;4.498;2023-04-19T10:23:33;102881.59;;;16.56;33.02
60437;BME280;46289;51.992;4.498;2023-04-19T10:25:45;102885.94;;;16.02;32.55
60437;BME280;46289;51.992;4.498;2023-04-19T10:27:50;102883.59;;;15.92;33.40
60437;BME280;46289;51.992;4.498;2023-04-19T10:29:56;102878.63;;;15.81;31.98
60437;BME280;46289;51.992;4.498;2023-04-19T10:32:06;102879.88;;;15.68;32.98
60437;BME280;46289;51.992;4.498;2023-04-19T10:34:11;102880.19;;;15.57;32.49
60437;BME280;46289;51.992;4.498;2023-04-19T10:36:20;102886.16;;;16.24;31.94
60437;BME280;46289;51.992;4.498;2023-04-19T10:38:43;102883.56;;;15.93;32.37
60437;BME280;46289;51.992;4.498;2023-04-19T10:40:57;102878.59;;;15.83;32.57
60437;BME280;46289;51.992;4.498;2023-04-19T10:43:14;102878.94;;;16.00;32.99
60437;BME280;46289;51.992;4.498;2023-04-19T10:45:35;102883.03;;;16.10;32.65
60437;BME280;46289;51.992;4.498;2023-04-19T10:47:43;102865.81;;;15.95;32.69
60437;BME280;46289;51.992;4.498;2023-04-19T10:49:51;102872.81;;;15.98;31.88
60437;BME280;46289;51.992;4.498;2023-04-19T10:51:56;102884.91;;;15.77;31.71
60437;BME280;46289;51.992;4.498;2023-04-19T10:54:03;102877.22;;;15.69;32.17
60437;BME280;46289;51.992;4.498;2023-04-19T10:56:08;102874.69;;;15.94;32.29
60437;BME280;46289;51.992;4.498;2023-04-19T10:58:13;102879.00;;;15.98;31.60
60437;BME280;46289;51.992;4.498;2023-04-19T11:00:21;102873.97;;;16.17;31.38
60437;BME280;46289;51.992;4.498;2023-04-19T11:02:27;102872.44;;;16.10;31.15
60437;BME280;46289;51.992;4.498;2023-04-19T11:07:29;102874.03;;;15.88;32.40
60437;BME280;46289;51.992;4.498;2023-04-19T11:09:51;102872.00;;;15.96;32.27
60437;BME280;46289;51.992;4.498;2023-04-19T11:11:59;102863.88;;;15.41;32.81
60437;BME280;46289;51.992;4.498;2023-04-19T11:14:08;102868.31;;;15.41;32.84